[2025-02-18 00:00:00, 2025-02-18 23:59:59] previous next
| time | temperature | air pressure | humidity | solar radiation | wind speed |
|---|---|---|---|---|---|
| 2025-02-18 07:18:17 | -3.3 | 1015.4 | 90.0 | 0.0 | 0.0 |
| 2025-02-18 07:40:23 | -2.3 | 1015.8 | 86.0 | 23.1 | 0.0 |
| 2025-02-18 08:00:23 | -2.1 | 1015.8 | 85.0 | 27.7 | 0.3 |
| 2025-02-18 08:20:24 | -1.8 | 1015.8 | 86.0 | 33.9 | 1.8 |
| 2025-02-18 08:40:23 | -1.0 | 1016.1 | 85.0 | 37.9 | 1.4 |
| 2025-02-18 09:00:23 | -0.8 | 1015.8 | 82.0 | 39.2 | 1.7 |
| 2025-02-18 09:20:24 | -0.2 | 1015.8 | 81.0 | 38.6 | 0.7 |
| 2025-02-18 09:40:25 | -0.2 | 1015.8 | 80.0 | 35.5 | 1.5 |
| 2025-02-18 10:00:25 | 0.7 | 1015.8 | 79.0 | 47.8 | 1.5 |
| 2025-02-18 10:20:24 | 1.1 | 1016.1 | 75.0 | 41.1 | 2.0 |
| 2025-02-18 10:40:24 | 1.6 | 1016.1 | 72.0 | 59.0 | 1.4 |
| 2025-02-18 11:00:23 | 2.0 | 1016.1 | 69.0 | 113.8 | 2.1 |
| 2025-02-18 11:20:23 | 2.4 | 1016.1 | 67.0 | 156.2 | 3.8 |
| 2025-02-18 11:40:26 | 2.2 | 1015.8 | 69.0 | 203.9 | 2.0 |
| 2025-02-18 12:00:25 | 2.5 | 1015.8 | 67.0 | 244.4 | 2.8 |
| 2025-02-18 12:20:24 | 2.9 | 1015.8 | 64.0 | 256.8 | 2.4 |
| 2025-02-18 12:40:23 | 3.3 | 1015.4 | 63.0 | 260.1 | 0.4 |
| 2025-02-18 13:00:24 | 3.5 | 1015.1 | 65.0 | 261.5 | 1.7 |
| 2025-02-18 13:20:23 | 3.7 | 1015.1 | 65.0 | 260.2 | 4.3 |
| 2025-02-18 13:40:23 | 3.5 | 1015.1 | 64.0 | 256.7 | 2.0 |
| 2025-02-18 14:00:23 | 3.7 | 1014.7 | 63.0 | 242.4 | 1.8 |
| 2025-02-18 14:20:22 | 3.8 | 1014.1 | 62.0 | 231.4 | 3.5 |
| 2025-02-18 14:40:23 | 4.0 | 1014.4 | 62.0 | 217.2 | 2.1 |
| 2025-02-18 15:00:23 | 3.7 | 1014.1 | 61.0 | 196.8 | 2.7 |
| 2025-02-18 15:20:23 | 3.9 | 1014.1 | 62.0 | 174.9 | 1.8 |
CSV export: /station/IWELLEN5/data?period=20250218T000000/20250218T235959&format=csv&tz=GMT